Time;durP1;ratioP1;P1;durP2;ratioP2;P2;SDS_P1;SDS_P2;PMS_P1;PMS_P2;Temp;Humidity;BMP_temperature;BMP_pressure;BME280_temperature;BME280_humidity;BME280_pressure;Samples;Min_cycle;Max_cycle;Signal;HPM_P1;HPM_P2
2022/10/24 00:01:51;;;;;;;4.80;2.47;;;15.80;1.00;;;;;;4950525;28;20564;-67
2022/10/24 00:04:16;;;;;;;15.50;2.00;;;15.80;1.00;;;;;;4951920;29;20501;-67
2022/10/24 00:06:42;;;;;;;3.60;1.90;;;15.80;1.00;;;;;;4950171;28;20253;-67
2022/10/24 00:09:08;;;;;;;7.10;3.00;;;15.90;1.00;;;;;;4951827;29;20245;-67
2022/10/24 00:11:34;;;;;;;7.67;2.70;;;15.70;1.00;;;;;;4950693;29;20182;-67
2022/10/24 00:14:00;;;;;;;14.63;4.30;;;15.80;1.00;;;;;;4951995;28;20169;-67
2022/10/24 00:16:27;;;;;;;8.70;2.40;;;15.70;1.00;;;;;;4951048;28;20438;-67
2022/10/24 00:18:53;;;;;;;11.93;2.70;;;15.70;1.00;;;;;;4951735;28;20836;-67
2022/10/24 00:21:18;;;;;;;5.20;2.67;;;15.70;1.00;;;;;;4950577;29;20414;-67
2022/10/24 00:23:45;;;;;;;4.63;1.80;;;15.60;1.00;;;;;;4951814;28;20261;-67
2022/10/24 00:26:11;;;;;;;5.43;2.10;;;15.60;1.00;;;;;;4951408;28;20197;-67
2022/10/24 00:28:37;;;;;;;4.50;2.60;;;15.60;1.00;;;;;;4951535;29;20433;-67
2022/10/24 00:31:05;;;;;;;7.53;2.50;;;15.60;1.00;;;;;;4950295;28;20782;-67
2022/10/24 00:33:31;;;;;;;6.80;2.17;;;15.60;1.00;;;;;;4951644;28;20406;-67
2022/10/24 00:35:56;;;;;;;8.50;2.60;;;15.60;1.00;;;;;;4951261;28;20475;-67
2022/10/24 00:38:22;;;;;;;8.00;2.50;;;15.60;1.00;;;;;;4951600;29;20269;-67
2022/10/24 00:40:48;;;;;;;3.40;1.90;;;15.60;1.00;;;;;;4950577;28;20178;-67
2022/10/24 00:43:20;;;;;;;4.23;1.93;;;15.60;1.00;;;;;;4951805;28;20706;-67
2022/10/24 00:45:45;;;;;;;3.87;2.03;;;15.60;1.00;;;;;;4950587;28;20198;-67
2022/10/24 00:48:26;;;;;;;5.53;2.20;;;15.60;1.00;;;;;;4951718;28;20688;-66
2022/10/24 00:50:57;;;;;;;8.23;2.00;;;15.60;1.00;;;;;;4950504;29;20174;-66
2022/10/24 00:53:25;;;;;;;5.27;2.03;;;15.60;1.00;;;;;;4951731;28;20413;-67
2022/10/24 00:55:54;;;;;;;3.73;2.10;;;15.60;1.00;;;;;;4950943;28;20476;-66
2022/10/24 00:58:22;;;;;;;8.30;2.80;;;15.70;1.00;;;;;;4951639;28;20409;-67
2022/10/24 01:00:48;;;;;;;5.47;2.20;;;15.60;1.00;;;;;;4956176;28;20425;-67
2022/10/24 01:03:14;;;;;;;4.43;2.20;;;15.70;1.00;;;;;;4971999;28;20484;-67
2022/10/24 01:06:00;;;;;;;6.30;2.03;;;15.60;1.00;;;;;;4972498;28;20438;-67
2022/10/24 01:08:41;;;;;;;6.53;2.30;;;15.60;1.00;;;;;;4970135;28;20498;-67
2022/10/24 01:11:34;;;;;;;5.73;2.33;;;15.60;1.00;;;;;;4964076;28;20990;-67
2022/10/24 01:14:06;;;;;;;10.90;2.73;;;15.60;1.00;;;;;;4972856;28;20421;-67
2022/10/24 01:16:47;;;;;;;6.17;2.20;;;15.60;1.00;;;;;;4973154;28;20491;-67
2022/10/24 01:19:15;;;;;;;6.20;3.30;;;15.50;1.00;;;;;;4973629;28;20487;-67
2022/10/24 01:22:06;;;;;;;3.80;2.20;;;15.40;1.00;;;;;;4973188;28;20452;-67
2022/10/24 01:24:47;;;;;;;4.93;2.17;;;15.40;1.00;;;;;;4974125;28;20412;-67
2022/10/24 01:27:16;;;;;;;5.80;3.10;;;15.40;1.00;;;;;;4974070;28;20420;-66
2022/10/24 01:30:05;;;;;;;5.60;2.27;;;15.30;1.00;;;;;;4974047;28;20412;-67
2022/10/24 01:32:43;;;;;;;5.97;2.70;;;15.30;1.00;;;;;;4972553;28;20416;-67
2022/10/24 01:35:41;;;;;;;7.03;2.50;;;15.20;1.00;;;;;;4973879;28;20513;-67
2022/10/24 01:38:34;;;;;;;4.13;2.47;;;15.30;1.00;;;;;;4973544;28;20436;-66
2022/10/24 01:41:30;;;;;;;3.03;2.10;;;15.30;1.00;;;;;;4972788;28;20422;-67
2022/10/24 01:44:07;;;;;;;9.10;2.20;;;15.30;1.00;;;;;;4972468;28;20432;-67
2022/10/24 01:46:38;;;;;;;3.57;2.30;;;15.30;1.00;;;;;;4972744;28;20420;-67
2022/10/24 01:49:15;;;;;;;4.23;2.10;;;15.30;1.00;;;;;;4973151;28;21046;-66
2022/10/24 01:51:41;;;;;;;6.63;2.60;;;15.30;1.00;;;;;;4972613;28;20409;-67
2022/10/24 01:54:08;;;;;;;3.93;2.70;;;15.30;1.00;;;;;;4973092;28;20792;-67
2022/10/24 01:56:34;;;;;;;8.20;3.10;;;15.30;1.00;;;;;;4972861;28;20822;-67
2022/10/24 01:59:27;;;;;;;6.50;2.67;;;15.30;1.00;;;;;;4973631;28;20409;-67
2022/10/24 02:02:01;;;;;;;6.37;3.23;;;15.40;1.00;;;;;;4971714;28;20201;-67
2022/10/24 02:04:29;;;;;;;9.73;2.80;;;15.40;1.00;;;;;;4973416;28;20405;-67
2022/10/24 02:06:56;;;;;;;6.17;2.73;;;15.40;1.00;;;;;;4972882;28;20429;-67
2022/10/24 02:09:23;;;;;;;12.37;3.70;;;15.40;1.00;;;;;;4971442;28;20496;-67
2022/10/24 02:11:52;;;;;;;8.80;2.90;;;15.40;1.00;;;;;;4972227;28;20425;-66
2022/10/24 02:14:24;;;;;;;8.23;3.40;;;15.40;1.00;;;;;;4971623;28;20413;-66
2022/10/24 02:16:50;;;;;;;7.17;3.10;;;15.50;1.00;;;;;;4972339;28;20433;-66
2022/10/24 02:19:17;;;;;;;8.00;2.67;;;15.50;1.00;;;;;;4973030;28;20424;-66
2022/10/24 02:22:07;;;;;;;11.57;3.90;;;15.50;1.00;;;;;;4972201;28;20478;-67
2022/10/24 02:24:54;;;;;;;12.60;3.67;;;15.50;1.00;;;;;;4972598;28;20408;-66
2022/10/24 02:27:41;;;;;;;17.87;3.17;;;15.50;1.00;;;;;;4972441;28;20462;-67
2022/10/24 02:30:11;;;;;;;5.43;2.77;;;15.50;1.00;;;;;;4972902;28;20481;-67
2022/10/24 02:32:48;;;;;;;11.13;3.30;;;15.50;1.00;;;;;;4971758;28;20413;-67
2022/10/24 02:35:17;;;;;;;10.77;2.50;;;15.50;1.00;;;;;;4972146;28;20455;-67
2022/10/24 02:37:48;;;;;;;6.90;2.70;;;15.50;1.00;;;;;;4972623;28;20440;-67
2022/10/24 02:40:16;;;;;;;8.47;2.30;;;15.50;1.00;;;;;;4972246;28;20496;-67
2022/10/24 02:42:45;;;;;;;9.07;3.13;;;15.40;1.00;;;;;;4971739;28;20464;-67
2022/10/24 02:45:14;;;;;;;5.43;2.50;;;15.40;1.00;;;;;;4972297;28;20425;-66
2022/10/24 02:47:41;;;;;;;9.87;2.83;;;15.40;1.00;;;;;;4972144;28;20413;-67
2022/10/24 02:50:08;;;;;;;6.90;2.77;;;15.40;1.00;;;;;;4972411;28;20424;-67
2022/10/24 02:52:35;;;;;;;8.27;2.87;;;15.40;1.00;;;;;;4953595;28;20418;-66
2022/10/24 02:55:01;;;;;;;11.23;3.53;;;15.40;1.00;;;;;;4952806;28;21242;-66
2022/10/24 02:57:27;;;;;;;12.50;3.00;;;15.40;1.00;;;;;;4952868;29;20440;-66
2022/10/24 02:59:53;;;;;;;19.73;3.63;;;15.40;1.00;;;;;;4952962;29;20436;-67
2022/10/24 03:02:22;;;;;;;18.13;3.80;;;15.40;1.00;;;;;;4951219;28;20253;-66
2022/10/24 03:04:48;;;;;;;11.23;2.67;;;15.40;1.00;;;;;;4952527;28;20436;-66
2022/10/24 03:07:14;;;;;;;12.13;3.17;;;15.40;1.00;;;;;;4951455;28;20505;-66
2022/10/24 03:09:40;;;;;;;6.50;2.90;;;15.40;1.00;;;;;;4952942;28;20190;-67
2022/10/24 03:12:05;;;;;;;14.27;3.13;;;15.40;1.00;;;;;;4951781;29;20468;-66
2022/10/24 03:14:31;;;;;;;6.63;2.83;;;15.40;1.00;;;;;;4952517;28;20183;-67
2022/10/24 03:16:57;;;;;;;6.67;2.33;;;15.40;1.00;;;;;;4951832;28;20194;-67
2022/10/24 03:19:23;;;;;;;13.93;3.50;;;15.30;1.00;;;;;;4952804;29;20257;-67
2022/10/24 03:21:50;;;;;;;7.20;4.23;;;15.30;1.00;;;;;;4952369;28;20201;-67
2022/10/24 03:24:16;;;;;;;9.43;3.07;;;15.40;1.00;;;;;;4952668;29;20643;-66
2022/10/24 03:26:43;;;;;;;10.10;3.80;;;15.30;1.00;;;;;;4951496;28;20430;-67
2022/10/24 03:29:09;;;;;;;5.83;2.60;;;15.40;1.00;;;;;;4952123;28;20413;-66
2022/10/24 03:31:35;;;;;;;7.40;2.87;;;15.40;1.00;;;;;;4950928;28;20505;-66
2022/10/24 03:34:01;;;;;;;6.30;3.00;;;15.40;1.00;;;;;;4951872;28;20185;-67
2022/10/24 03:36:27;;;;;;;8.73;3.10;;;15.40;1.00;;;;;;4951581;28;20256;-66
2022/10/24 03:38:52;;;;;;;9.00;3.30;;;15.40;1.00;;;;;;4952045;29;20177;-67
2022/10/24 03:41:18;;;;;;;13.30;3.67;;;15.40;1.00;;;;;;4950667;29;20174;-68
2022/10/24 03:43:43;;;;;;;7.93;2.87;;;15.40;1.00;;;;;;4951775;28;20175;-67
2022/10/24 03:46:09;;;;;;;7.67;3.30;;;15.30;1.00;;;;;;4951632;28;20198;-67
2022/10/24 03:48:35;;;;;;;12.80;3.67;;;15.30;1.00;;;;;;4951768;28;20525;-66
2022/10/24 03:51:01;;;;;;;12.40;4.30;;;15.30;1.00;;;;;;4951285;28;20182;-66
2022/10/24 03:53:26;;;;;;;14.60;7.03;;;15.30;1.00;;;;;;4952175;28;20667;-67
2022/10/24 03:55:52;;;;;;;16.80;6.20;;;15.30;1.00;;;;;;4951743;28;20288;-67
2022/10/24 03:58:18;;;;;;;12.53;5.70;;;15.30;1.00;;;;;;4951592;29;20480;-67
2022/10/24 04:00:43;;;;;;;6.67;3.73;;;15.30;1.00;;;;;;4950298;28;20190;-66
2022/10/24 04:03:09;;;;;;;11.77;4.20;;;15.30;1.00;;;;;;4951907;28;20214;-66
2022/10/24 04:05:35;;;;;;;6.17;4.40;;;15.30;1.00;;;;;;4950444;28;20198;-66
2022/10/24 04:08:02;;;;;;;4.90;3.00;;;15.40;1.00;;;;;;4951510;28;20409;-66
2022/10/24 04:10:27;;;;;;;13.53;3.93;;;15.40;1.00;;;;;;4950506;28;20176;-67
2022/10/24 04:12:53;;;;;;;14.13;3.20;;;15.30;1.00;;;;;;4951386;28;20504;-66
2022/10/24 04:15:19;;;;;;;10.40;3.20;;;15.30;1.00;;;;;;4951277;29;20555;-66
2022/10/24 04:17:45;;;;;;;15.33;3.23;;;15.40;1.00;;;;;;4951085;29;20418;-66
2022/10/24 04:20:11;;;;;;;7.70;3.87;;;15.40;1.00;;;;;;4951252;29;20198;-66
2022/10/24 04:22:36;;;;;;;8.97;4.97;;;15.50;1.00;;;;;;4950694;28;20206;-66
2022/10/24 04:25:03;;;;;;;6.73;3.47;;;15.50;1.00;;;;;;4951147;28;20441;-66
2022/10/24 04:27:28;;;;;;;8.73;2.63;;;15.50;1.00;;;;;;4951382;28;20166;-66
2022/10/24 04:29:54;;;;;;;9.17;3.50;;;15.50;1.00;;;;;;4951586;29;20468;-67
2022/10/24 04:32:20;;;;;;;8.50;2.53;;;15.50;1.00;;;;;;4950466;28;20197;-65
2022/10/24 04:34:46;;;;;;;14.43;3.47;;;15.60;1.00;;;;;;4947236;28;20505;-66
2022/10/24 04:37:11;;;;;;;8.90;3.80;;;15.60;1.00;;;;;;4946432;28;20178;-67
2022/10/24 04:39:37;;;;;;;7.40;2.87;;;15.60;1.00;;;;;;4954647;29;20249;-67
2022/10/24 04:42:03;;;;;;;12.07;3.90;;;15.60;1.00;;;;;;4943645;29;20703;-67
2022/10/24 04:44:28;;;;;;;8.37;2.87;;;15.60;1.00;;;;;;4935314;29;20163;-67
2022/10/24 04:46:54;;;;;;;7.90;3.63;;;15.60;1.00;;;;;;4934714;29;20194;-68
2022/10/24 04:49:20;;;;;;;7.17;3.00;;;15.60;1.00;;;;;;4935094;29;20193;-67
2022/10/24 04:51:46;;;;;;;6.43;2.90;;;15.60;1.00;;;;;;4934368;29;20206;-67
2022/10/24 04:54:11;;;;;;;11.57;3.60;;;15.60;1.00;;;;;;4937602;29;20171;-67
2022/10/24 04:56:37;;;;;;;5.93;3.37;;;15.60;1.00;;;;;;4934104;29;20199;-67
2022/10/24 04:59:03;;;;;;;9.00;3.47;;;15.70;1.00;;;;;;4933323;29;20194;-65
2022/10/24 05:01:28;;;;;;;7.43;3.27;;;15.60;1.00;;;;;;4931727;29;20175;-67
2022/10/24 05:03:54;;;;;;;9.37;3.30;;;15.60;1.00;;;;;;4933197;29;20175;-68
2022/10/24 05:06:20;;;;;;;8.90;3.70;;;15.60;1.00;;;;;;4931821;29;20183;-67
2022/10/24 05:08:45;;;;;;;8.27;3.47;;;15.60;1.00;;;;;;4933939;29;20171;-67
2022/10/24 05:11:11;;;;;;;5.77;3.10;;;15.70;1.00;;;;;;4931609;29;20240;-66
2022/10/24 05:13:38;;;;;;;9.17;3.10;;;15.70;1.00;;;;;;4932494;29;20230;-68
2022/10/24 05:16:05;;;;;;;7.27;3.40;;;15.70;1.00;;;;;;4931739;29;20249;-68
2022/10/24 05:18:31;;;;;;;17.63;4.53;;;15.60;1.00;;;;;;4932672;29;20439;-66
2022/10/24 05:20:58;;;;;;;4.50;3.10;;;15.60;1.00;;;;;;4931364;29;20505;-66
2022/10/24 05:23:25;;;;;;;5.73;3.30;;;15.60;1.00;;;;;;4935984;28;20556;-67
2022/10/24 05:25:51;;;;;;;10.30;3.37;;;15.50;1.00;;;;;;4946795;28;20894;-68
2022/10/24 05:28:16;;;;;;;11.90;3.70;;;15.50;1.00;;;;;;4948795;28;20560;-66
2022/10/24 05:30:43;;;;;;;9.60;4.03;;;15.60;1.00;;;;;;4951219;28;20552;-67
2022/10/24 05:33:08;;;;;;;16.67;4.33;;;15.60;1.00;;;;;;4957477;28;20185;-67
2022/10/24 05:35:34;;;;;;;11.27;3.30;;;15.60;1.00;;;;;;4970655;28;20445;-66
2022/10/24 05:38:00;;;;;;;13.10;3.40;;;15.50;1.00;;;;;;4955670;28;20183;-67
2022/10/24 05:40:25;;;;;;;10.13;3.57;;;15.50;1.00;;;;;;4950209;28;20509;-67
2022/10/24 05:42:51;;;;;;;12.93;3.50;;;15.50;1.00;;;;;;4951275;28;20198;-67
2022/10/24 05:45:18;;;;;;;7.53;3.57;;;15.50;1.00;;;;;;4951416;28;20701;-67
2022/10/24 05:47:43;;;;;;;8.70;2.70;;;15.50;1.00;;;;;;4950495;28;20174;-67
2022/10/24 05:50:10;;;;;;;12.10;2.67;;;15.40;1.00;;;;;;4935908;28;21118;-68
2022/10/24 05:52:35;;;;;;;9.20;2.87;;;15.40;1.00;;;;;;4931569;29;20186;-67
2022/10/24 05:55:05;;;;;;;7.27;2.77;;;15.40;1.00;;;;;;4933070;29;20439;-67
2022/10/24 05:57:32;;;;;;;25.67;4.40;;;15.50;1.00;;;;;;4931819;29;20194;-67
2022/10/24 05:59:58;;;;;;;8.50;3.77;;;15.50;1.00;;;;;;4932127;29;20495;-67
2022/10/24 06:02:24;;;;;;;22.33;4.50;;;15.50;1.00;;;;;;4930598;29;20507;-67
2022/10/24 06:04:49;;;;;;;15.03;3.47;;;15.50;1.00;;;;;;4932034;29;20647;-68
2022/10/24 06:07:17;;;;;;;26.83;3.60;;;15.40;1.00;;;;;;4946367;28;20510;-68
2022/10/24 06:09:43;;;;;;;21.53;4.40;;;15.40;1.00;;;;;;4956100;28;20269;-67
2022/10/24 06:12:09;;;;;;;16.70;3.50;;;15.30;1.00;;;;;;4947420;29;20445;-66
2022/10/24 06:14:36;;;;;;;11.43;3.30;;;15.30;1.00;;;;;;4951670;28;20803;-66
2022/10/24 06:17:04;;;;;;;20.23;3.47;;;15.30;1.00;;;;;;4952132;28;20481;-67
2022/10/24 06:19:31;;;;;;;10.10;3.90;;;15.30;1.00;;;;;;4956988;28;20425;-68
2022/10/24 06:21:57;;;;;;;40.30;7.07;;;15.30;1.00;;;;;;4949407;28;20458;-68
2022/10/24 06:24:22;;;;;;;129.50;11.90;;;15.30;1.00;;;;;;4954380;28;20503;-68
2022/10/24 06:26:48;;;;;;;40.33;7.60;;;15.30;1.00;;;;;;4954313;28;20194;-67
2022/10/24 06:29:14;;;;;;;21.80;4.87;;;15.20;1.00;;;;;;4945746;28;20170;-68
2022/10/24 06:31:39;;;;;;;18.93;4.83;;;15.10;1.00;;;;;;4945352;29;20179;-67
2022/10/24 06:34:05;;;;;;;22.37;5.83;;;15.10;1.00;;;;;;4951050;28;20273;-68
2022/10/24 06:36:31;;;;;;;28.70;5.10;;;15.20;1.00;;;;;;4956150;28;20577;-67
2022/10/24 06:38:56;;;;;;;41.10;6.43;;;15.20;1.00;;;;;;4950411;28;20210;-68
2022/10/24 06:41:23;;;;;;;14.43;4.00;;;15.20;1.00;;;;;;4948178;28;20593;-69
2022/10/24 06:43:48;;;;;;;14.57;4.00;;;15.10;1.00;;;;;;4950836;28;20182;-69
2022/10/24 06:46:16;;;;;;;18.43;4.10;;;15.10;1.00;;;;;;4960239;28;20504;-69
2022/10/24 06:48:42;;;;;;;24.10;6.73;;;15.10;1.00;;;;;;4953624;28;20237;-68
2022/10/24 06:51:08;;;;;;;12.40;5.10;;;15.20;1.00;;;;;;4952163;28;20406;-69
2022/10/24 06:53:34;;;;;;;9.70;4.20;;;15.30;1.00;;;;;;4953359;28;20418;-68
2022/10/24 06:56:04;;;;;;;8.30;3.20;;;15.30;1.00;;;;;;4951118;29;20437;-70
2022/10/24 06:58:35;;;;;;;9.07;3.50;;;15.30;1.00;;;;;;4952818;28;20208;-68
2022/10/24 07:01:08;;;;;;;11.77;4.00;;;15.30;1.00;;;;;;4950797;28;20898;-68
2022/10/24 07:03:34;;;;;;;9.67;3.20;;;15.30;1.00;;;;;;4952757;28;20454;-68
2022/10/24 07:06:08;;;;;;;8.57;3.37;;;15.30;1.00;;;;;;4952688;29;20422;-70
2022/10/24 07:08:34;;;;;;;20.07;4.13;;;15.30;1.00;;;;;;4953114;29;20172;-69
2022/10/24 07:11:00;;;;;;;26.67;5.17;;;15.30;1.00;;;;;;4951613;28;20413;-69
2022/10/24 07:13:26;;;;;;;30.10;5.00;;;15.30;1.00;;;;;;4952337;29;20414;-69
2022/10/24 07:15:54;;;;;;;40.07;8.60;;;15.30;1.00;;;;;;4951912;28;20691;-69
2022/10/24 07:18:20;;;;;;;49.37;7.77;;;15.40;1.00;;;;;;4952546;28;20560;-68
2022/10/24 07:20:46;;;;;;;33.03;4.97;;;15.40;1.00;;;;;;4951357;29;20914;-67
2022/10/24 07:23:13;;;;;;;11.80;3.50;;;15.50;1.00;;;;;;4951119;29;20466;-67
2022/10/24 07:25:39;;;;;;;24.40;4.50;;;15.30;1.00;;;;;;4950657;29;20778;-69
2022/10/24 07:28:06;;;;;;;11.90;3.97;;;15.40;1.00;;;;;;4952019;29;20410;-68
2022/10/24 07:30:32;;;;;;;22.90;3.90;;;15.40;1.00;;;;;;4951043;28;20464;-67
2022/10/24 07:32:58;;;;;;;34.50;5.80;;;15.40;1.00;;;;;;4952215;28;20795;-67
2022/10/24 07:35:23;;;;;;;16.23;3.60;;;15.40;1.00;;;;;;4951275;29;20690;-68
2022/10/24 07:37:50;;;;;;;13.40;3.87;;;15.40;1.00;;;;;;4951861;28;20198;-68
2022/10/24 07:40:16;;;;;;;14.50;3.67;;;15.40;1.00;;;;;;4951464;28;20301;-68
2022/10/24 07:42:42;;;;;;;17.37;3.60;;;15.40;1.00;;;;;;4943985;28;20894;-68
2022/10/24 07:45:08;;;;;;;7.20;3.20;;;15.30;1.00;;;;;;4941836;28;20276;-68
2022/10/24 07:47:34;;;;;;;6.20;3.20;;;15.40;1.00;;;;;;4950727;28;20201;-68
2022/10/24 07:50:00;;;;;;;6.57;2.70;;;15.30;1.00;;;;;;4949668;28;20525;-68
2022/10/24 07:52:26;;;;;;;11.00;3.53;;;15.30;1.00;;;;;;4950174;28;20292;-69
2022/10/24 07:54:53;;;;;;;7.40;5.30;;;15.40;1.00;;;;;;4950855;28;20225;-69
2022/10/24 07:57:19;;;;;;;8.43;3.60;;;15.30;1.00;;;;;;4951067;28;20170;-68
2022/10/24 07:59:44;;;;;;;15.17;3.30;;;15.40;1.00;;;;;;4950113;28;20528;-69
2022/10/24 08:02:12;;;;;;;5.40;3.23;;;15.40;1.00;;;;;;4949370;28;20540;-68
2022/10/24 08:04:38;;;;;;;10.50;3.07;;;15.50;1.00;;;;;;4950255;28;20170;-69
2022/10/24 08:07:07;;;;;;;9.63;3.30;;;15.40;1.00;;;;;;4950611;28;20944;-68
2022/10/24 08:09:37;;;;;;;6.57;3.20;;;15.40;1.00;;;;;;4945499;29;20493;-68
2022/10/24 08:12:03;;;;;;;7.20;3.77;;;15.50;1.00;;;;;;4947377;28;20418;-69
2022/10/24 08:14:29;;;;;;;13.63;4.73;;;15.50;1.00;;;;;;4950813;28;20497;-67
2022/10/24 08:16:54;;;;;;;9.10;3.73;;;15.50;1.00;;;;;;4950257;28;20441;-69
2022/10/24 08:19:20;;;;;;;10.93;5.20;;;15.50;1.00;;;;;;4949817;29;20174;-69
2022/10/24 08:21:46;;;;;;;10.60;3.90;;;15.60;1.00;;;;;;4949729;28;20197;-69
2022/10/24 08:24:11;;;;;;;22.03;6.23;;;15.60;1.00;;;;;;4950800;28;20197;-68
2022/10/24 08:26:40;;;;;;;11.10;4.03;;;15.60;1.00;;;;;;4950622;28;20555;-69
2022/10/24 08:29:10;;;;;;;24.83;4.87;;;15.50;1.00;;;;;;4950205;28;20166;-67
2022/10/24 08:31:36;;;;;;;14.70;5.03;;;15.60;1.00;;;;;;4948777;28;20481;-68
2022/10/24 08:34:04;;;;;;;19.90;4.93;;;15.60;1.00;;;;;;4950511;28;21154;-67
2022/10/24 08:36:32;;;;;;;10.00;4.20;;;15.70;1.00;;;;;;4949997;28;20461;-70
2022/10/24 08:38:59;;;;;;;5.43;3.40;;;15.80;1.00;;;;;;4949790;29;20440;-67
2022/10/24 08:41:24;;;;;;;9.67;4.00;;;15.80;1.00;;;;;;4949600;28;20444;-69
2022/10/24 08:43:52;;;;;;;8.03;3.40;;;15.80;1.00;;;;;;4950631;28;20410;-70
2022/10/24 08:46:29;;;;;;;11.63;3.93;;;15.90;1.00;;;;;;4950010;28;20193;-69
2022/10/24 08:49:23;;;;;;;22.07;5.03;;;15.90;1.00;;;;;;4950557;28;20410;-68
2022/10/24 08:52:03;;;;;;;38.67;6.33;;;15.90;1.00;;;;;;4945918;29;20425;-69
2022/10/24 08:54:36;;;;;;;13.03;5.27;;;15.80;1.00;;;;;;4950091;29;20779;-68
2022/10/24 08:57:04;;;;;;;19.70;5.27;;;15.80;1.00;;;;;;4950328;28;20426;-68
2022/10/24 08:59:34;;;;;;;9.10;4.53;;;15.80;1.00;;;;;;4950797;28;20460;-68
2022/10/24 09:02:11;;;;;;;12.57;4.43;;;15.80;1.00;;;;;;4948517;28;20839;-67
2022/10/24 09:04:47;;;;;;;12.67;4.20;;;15.90;1.00;;;;;;4945348;28;20413;-67
2022/10/24 09:07:18;;;;;;;15.03;5.10;;;16.00;1.00;;;;;;4950175;28;20533;-69
2022/10/24 09:09:47;;;;;;;22.90;7.33;;;16.00;1.00;;;;;;4950502;28;20513;-68
2022/10/24 09:12:15;;;;;;;29.70;9.30;;;16.10;1.00;;;;;;4949635;28;20418;-67
2022/10/24 09:14:44;;;;;;;19.73;7.80;;;16.10;1.00;;;;;;4950371;28;20425;-68
2022/10/24 09:17:31;;;;;;;29.07;9.50;;;16.10;1.00;;;;;;4949691;28;20414;-67
2022/10/24 09:20:00;;;;;;;31.77;6.87;;;16.10;1.00;;;;;;4949874;29;20504;-67
2022/10/24 09:22:29;;;;;;;71.10;12.33;;;16.10;1.00;;;;;;4948679;28;20449;-70
2022/10/24 09:25:00;;;;;;;41.80;7.40;;;16.10;1.00;;;;;;4952567;28;20445;-67
2022/10/24 09:27:34;;;;;;;30.90;7.60;;;16.00;1.00;;;;;;4953491;28;20418;-67
2022/10/24 09:30:00;;;;;;;28.80;5.20;;;16.00;1.00;;;;;;4953510;28;20492;-67
2022/10/24 09:32:29;;;;;;;59.03;9.57;;;16.00;1.00;;;;;;4951691;28;20486;-69
2022/10/24 09:35:08;;;;;;;88.20;14.60;;;16.00;1.00;;;;;;4953294;28;20445;-67
2022/10/24 09:37:38;;;;;;;77.00;12.93;;;16.00;1.00;;;;;;4952578;28;20425;-68
2022/10/24 09:40:11;;;;;;;178.17;19.73;;;16.00;1.00;;;;;;4954355;28;20934;-69
2022/10/24 09:42:37;;;;;;;14.30;4.97;;;15.90;1.00;;;;;;4953434;28;20472;-68
2022/10/24 09:45:28;;;;;;;10.20;4.03;;;15.90;1.00;;;;;;4953354;28;20476;-68
2022/10/24 09:47:56;;;;;;;29.30;6.40;;;15.90;1.00;;;;;;4942926;29;20449;-67
2022/10/24 09:50:23;;;;;;;13.17;3.90;;;15.90;1.00;;;;;;4952754;28;20457;-72
2022/10/24 09:52:51;;;;;;;13.07;4.37;;;15.90;1.00;;;;;;4952914;28;20481;-68
2022/10/24 09:55:17;;;;;;;15.20;4.27;;;15.90;1.00;;;;;;4952921;28;20488;-69
2022/10/24 09:57:43;;;;;;;19.23;5.27;;;15.90;1.00;;;;;;4953236;28;20426;-70
2022/10/24 10:00:33;;;;;;;16.77;4.63;;;15.90;1.00;;;;;;4954094;28;20638;-69
2022/10/24 10:03:03;;;;;;;7.73;2.70;;;16.00;1.00;;;;;;4953347;28;20546;-67
2022/10/24 10:05:46;;;;;;;7.23;2.60;;;16.00;1.00;;;;;;4953391;28;20517;-68
2022/10/24 10:08:18;;;;;;;21.67;4.60;;;15.90;1.00;;;;;;4953698;29;20433;-68
2022/10/24 10:11:14;;;;;;;14.43;3.40;;;15.90;1.00;;;;;;4952612;28;20903;-68
2022/10/24 10:13:48;;;;;;;12.20;3.50;;;15.80;1.00;;;;;;4953508;29;20513;-67
2022/10/24 10:16:29;;;;;;;20.93;4.10;;;15.80;1.00;;;;;;4952684;28;20497;-68
2022/10/24 10:19:14;;;;;;;9.07;3.30;;;15.80;1.00;;;;;;4953005;29;20951;-68
2022/10/24 10:22:01;;;;;;;8.33;2.60;;;15.80;1.00;;;;;;4951647;28;20422;-70
2022/10/24 10:24:40;;;;;;;6.60;2.57;;;15.80;1.00;;;;;;4950594;29;20425;-67
2022/10/24 10:27:24;;;;;;;13.57;2.80;;;15.80;1.00;;;;;;4952664;28;20475;-67
2022/10/24 10:30:06;;;;;;;13.90;3.40;;;15.80;1.00;;;;;;4949422;28;20416;-67
2022/10/24 10:32:50;;;;;;;14.70;3.50;;;15.70;1.00;;;;;;4951751;28;20464;-67
2022/10/24 10:35:28;;;;;;;8.03;2.50;;;15.70;1.00;;;;;;4940802;29;21167;-70
2022/10/24 10:38:24;;;;;;;13.33;3.33;;;15.70;1.00;;;;;;4953179;28;20418;-68
2022/10/24 10:41:00;;;;;;;10.30;3.30;;;15.70;1.00;;;;;;4951309;28;20991;-68
2022/10/24 10:43:48;;;;;;;15.93;3.53;;;15.70;1.00;;;;;;4952440;28;20445;-68
2022/10/24 10:46:30;;;;;;;6.90;2.70;;;15.70;1.00;;;;;;4951057;29;20468;-67
2022/10/24 10:49:15;;;;;;;11.53;2.37;;;15.70;1.00;;;;;;4943485;29;20482;-68
2022/10/24 10:51:55;;;;;;;15.60;3.37;;;15.70;1.00;;;;;;4951897;29;20414;-67
2022/10/24 10:54:42;;;;;;;23.50;4.97;;;15.70;1.00;;;;;;4951976;28;20437;-67
2022/10/24 10:57:24;;;;;;;13.30;3.40;;;15.70;1.00;;;;;;4952846;28;20870;-68
2022/10/24 11:00:14;;;;;;;14.90;3.63;;;15.70;1.00;;;;;;4952024;28;20422;-67
2022/10/24 11:02:56;;;;;;;10.27;3.00;;;15.60;1.00;;;;;;4946802;28;20464;-66
2022/10/24 11:05:39;;;;;;;11.70;2.80;;;15.70;1.00;;;;;;4951844;28;20480;-67
2022/10/24 11:08:05;;;;;;;8.40;3.20;;;15.70;1.00;;;;;;4950984;28;20437;-66
2022/10/24 11:10:39;;;;;;;8.17;3.27;;;15.60;1.00;;;;;;4949805;28;20434;-68
2022/10/24 11:13:14;;;;;;;10.90;2.50;;;15.60;1.00;;;;;;4951295;28;20178;-68
2022/10/24 11:15:45;;;;;;;9.73;2.60;;;15.60;1.00;;;;;;4954281;28;20448;-67
2022/10/24 11:18:14;;;;;;;21.03;2.43;;;15.60;1.00;;;;;;4952279;28;20414;-69
2022/10/24 11:20:59;;;;;;;9.57;2.30;;;15.70;1.00;;;;;;4951157;28;20433;-67
2022/10/24 11:24:19;;;;;;;21.90;3.20;;;15.70;1.00;;;;;;4950724;29;20481;-68
2022/10/24 11:27:13;;;;;;;26.07;4.37;;;15.60;1.00;;;;;;4958500;28;20453;-68
2022/10/24 11:29:44;;;;;;;11.20;2.57;;;15.60;1.00;;;;;;4948962;29;20958;-68
2022/10/24 11:32:37;;;;;;;13.77;2.70;;;15.60;1.00;;;;;;4949113;28;20434;-66
2022/10/24 11:35:28;;;;;;;24.27;3.33;;;15.60;1.00;;;;;;4950647;28;20467;-69
2022/10/24 11:38:02;;;;;;;28.13;4.83;;;15.60;1.00;;;;;;4948543;28;20718;-70
2022/10/24 11:40:30;;;;;;;38.10;5.73;;;15.70;1.00;;;;;;4950540;29;20851;-68
2022/10/24 11:43:08;;;;;;;20.57;3.67;;;15.80;1.00;;;;;;4948139;28;20465;-68
2022/10/24 11:45:55;;;;;;;6.70;2.83;;;15.80;1.00;;;;;;4964098;28;20492;-70
2022/10/24 11:48:29;;;;;;;10.07;2.73;;;15.90;1.00;;;;;;4951604;28;20417;-68
2022/10/24 11:51:07;;;;;;;8.47;2.37;;;15.90;1.00;;;;;;4950545;28;20409;-68
2022/10/24 11:53:38;;;;;;;10.20;2.20;;;15.90;1.00;;;;;;4946153;28;20442;-66
2022/10/24 11:56:10;;;;;;;9.13;2.20;;;16.00;1.00;;;;;;4948845;28;20465;-67
2022/10/24 11:58:51;;;;;;;6.87;2.70;;;16.00;1.00;;;;;;4951240;28;20449;-67
2022/10/24 12:01:54;;;;;;;4.03;2.93;;;16.00;1.00;;;;;;4947762;28;20433;-67
2022/10/24 12:04:38;;;;;;;8.83;2.27;;;15.90;1.00;;;;;;4950060;28;20860;-67
2022/10/24 12:07:25;;;;;;;11.97;2.93;;;15.70;1.00;;;;;;4954223;28;20430;-66
2022/10/24 12:10:25;;;;;;;20.97;4.43;;;15.70;1.00;;;;;;4947026;28;20509;-67
2022/10/24 12:13:27;;;;;;;23.93;5.50;;;15.80;1.00;;;;;;4944606;28;20769;-67
2022/10/24 12:16:25;;;;;;;22.93;4.17;;;15.80;1.00;;;;;;4949759;28;20504;-67
2022/10/24 12:18:58;;;;;;;3.87;2.00;;;15.90;1.00;;;;;;4946466;29;20433;-67
2022/10/24 12:21:27;;;;;;;5.67;2.17;;;15.80;1.00;;;;;;4947570;28;20455;-67
2022/10/24 12:23:58;;;;;;;5.73;2.70;;;15.90;1.00;;;;;;4950311;28;20465;-67
2022/10/24 12:26:29;;;;;;;9.43;2.40;;;15.90;1.00;;;;;;4949860;28;20541;-67
2022/10/24 12:29:06;;;;;;;5.40;2.47;;;15.90;1.00;;;;;;4950218;28;20433;-67
2022/10/24 12:31:34;;;;;;;8.23;2.17;;;15.90;1.00;;;;;;4956418;28;20472;-67
2022/10/24 12:34:15;;;;;;;3.47;1.77;;;15.90;1.00;;;;;;4950446;28;20426;-67
2022/10/24 12:37:18;;;;;;;8.10;2.70;;;16.00;1.00;;;;;;4946183;28;20519;-67
2022/10/24 12:39:47;;;;;;;11.90;3.47;;;16.00;1.00;;;;;;4951195;28;20507;-68
2022/10/24 12:42:36;;;;;;;16.00;4.30;;;16.00;1.00;;;;;;4950098;28;20465;-68
2022/10/24 12:45:04;;;;;;;8.80;2.83;;;16.10;1.00;;;;;;4941240;28;20442;-67
2022/10/24 12:47:52;;;;;;;7.63;3.00;;;16.10;1.00;;;;;;4949811;28;20449;-68
2022/10/24 12:50:21;;;;;;;11.70;3.17;;;16.20;1.00;;;;;;4965693;28;20422;-67
2022/10/24 12:52:46;;;;;;;21.43;3.83;;;16.30;1.00;;;;;;4957391;28;21091;-68
2022/10/24 12:55:36;;;;;;;13.63;3.10;;;16.30;1.00;;;;;;4955790;28;20504;-68
2022/10/24 12:58:20;;;;;;;33.40;5.03;;;16.30;1.00;;;;;;4951908;28;20698;-68
2022/10/24 13:01:19;;;;;;;7.73;2.43;;;16.30;1.00;;;;;;4950685;28;20480;-68
2022/10/24 13:03:57;;;;;;;15.73;1.80;;;16.30;1.00;;;;;;4954819;28;20473;-68
2022/10/24 13:06:44;;;;;;;6.53;2.43;;;16.40;1.00;;;;;;4958901;28;20779;-68
2022/10/24 13:09:49;;;;;;;10.20;1.97;;;16.40;1.00;;;;;;4953855;28;20444;-69
2022/10/24 13:12:32;;;;;;;7.03;2.17;;;16.30;1.00;;;;;;4953831;28;20911;-68
2022/10/24 13:15:22;;;;;;;15.00;2.87;;;16.30;1.00;;;;;;4953927;28;20441;-68